sensor_id;sensor_type;location;lat;lon;timestamp;temperature;humidity
82851;DHT22;72609;45.768;4.884;2024-01-16T05:51:33;3.70;91.40
82851;DHT22;72609;45.768;4.884;2024-01-16T05:53:58;1.80;87.90
82851;DHT22;72609;45.768;4.884;2024-01-16T05:56:24;1.80;88.20
82851;DHT22;72609;45.768;4.884;2024-01-16T15:12:00;1.90;90.60
82851;DHT22;72609;45.768;4.884;2024-01-16T15:14:26;3.30;89.30
82851;DHT22;72609;45.768;4.884;2024-01-16T15:16:52;3.30;90.20
82851;DHT22;72609;45.768;4.884;2024-01-16T15:19:17;3.40;89.10
82851;DHT22;72609;45.768;4.884;2024-01-16T15:21:43;3.30;88.20
82851;DHT22;72609;45.768;4.884;2024-01-16T15:24:09;3.30;90.20
82851;DHT22;72609;45.768;4.884;2024-01-16T15:26:34;3.30;90.10
82851;DHT22;72609;45.768;4.884;2024-01-16T15:29:00;3.30;87.90
82851;DHT22;72609;45.768;4.884;2024-01-16T15:31:26;3.30;90.10
82851;DHT22;72609;45.768;4.884;2024-01-16T15:33:51;3.30;90.00
82851;DHT22;72609;45.768;4.884;2024-01-16T15:36:17;3.30;88.70
82851;DHT22;72609;45.768;4.884;2024-01-16T15:38:43;3.30;89.90
82851;DHT22;72609;45.768;4.884;2024-01-16T15:41:08;3.30;88.80
82851;DHT22;72609;45.768;4.884;2024-01-16T15:43:34;3.40;90.10
82851;DHT22;72609;45.768;4.884;2024-01-16T15:46:00;3.40;89.30
82851;DHT22;72609;45.768;4.884;2024-01-16T15:48:26;3.50;88.90
82851;DHT22;72609;45.768;4.884;2024-01-16T15:50:58;3.50;89.40
82851;DHT22;72609;45.768;4.884;2024-01-16T15:53:24;3.50;88.00
82851;DHT22;72609;45.768;4.884;2024-01-16T15:55:50;3.40;88.60
82851;DHT22;72609;45.768;4.884;2024-01-16T15:58:17;3.40;89.80
82851;DHT22;72609;45.768;4.884;2024-01-16T16:00:43;3.40;89.20
82851;DHT22;72609;45.768;4.884;2024-01-16T16:03:09;3.40;88.10
82851;DHT22;72609;45.768;4.884;2024-01-16T16:05:35;3.40;90.00
82851;DHT22;72609;45.768;4.884;2024-01-16T16:08:01;3.50;90.20
82851;DHT22;72609;45.768;4.884;2024-01-16T16:10:26;3.50;90.00
82851;DHT22;72609;45.768;4.884;2024-01-16T16:12:52;3.60;89.50
82851;DHT22;72609;45.768;4.884;2024-01-16T16:15:18;3.60;90.00
82851;DHT22;72609;45.768;4.884;2024-01-16T16:17:43;3.60;89.00
82851;DHT22;72609;45.768;4.884;2024-01-16T16:20:09;3.70;89.40
82851;DHT22;72609;45.768;4.884;2024-01-16T16:22:35;3.70;88.40
82851;DHT22;72609;45.768;4.884;2024-01-16T16:25:04;3.60;89.00
82851;DHT22;72609;45.768;4.884;2024-01-16T16:27:30;3.60;89.20
82851;DHT22;72609;45.768;4.884;2024-01-16T16:29:56;3.60;88.60
82851;DHT22;72609;45.768;4.884;2024-01-16T16:32:24;3.60;89.70
82851;DHT22;72609;45.768;4.884;2024-01-16T16:34:50;3.70;89.60
82851;DHT22;72609;45.768;4.884;2024-01-16T16:37:16;3.70;88.30
82851;DHT22;72609;45.768;4.884;2024-01-16T16:39:42;3.70;87.80
82851;DHT22;72609;45.768;4.884;2024-01-16T16:42:08;3.70;88.70
82851;DHT22;72609;45.768;4.884;2024-01-16T16:44:33;3.70;88.90
82851;DHT22;72609;45.768;4.884;2024-01-16T16:46:59;3.70;89.10
82851;DHT22;72609;45.768;4.884;2024-01-16T16:49:25;3.70;89.30
82851;DHT22;72609;45.768;4.884;2024-01-16T16:51:50;3.70;88.50
82851;DHT22;72609;45.768;4.884;2024-01-16T16:54:16;3.70;89.20
82851;DHT22;72609;45.768;4.884;2024-01-16T16:56:42;3.70;88.90
82851;DHT22;72609;45.768;4.884;2024-01-16T16:59:09;3.70;89.10
82851;DHT22;72609;45.768;4.884;2024-01-16T17:01:35;3.70;89.00
82851;DHT22;72609;45.768;4.884;2024-01-16T17:04:04;3.70;88.40
82851;DHT22;72609;45.768;4.884;2024-01-16T17:06:29;3.60;88.80
82851;DHT22;72609;45.768;4.884;2024-01-16T17:08:57;3.70;89.80
82851;DHT22;72609;45.768;4.884;2024-01-16T17:11:24;3.70;89.50
82851;DHT22;72609;45.768;4.884;2024-01-16T17:13:52;3.70;89.00
82851;DHT22;72609;45.768;4.884;2024-01-16T17:16:18;3.70;89.80
82851;DHT22;72609;45.768;4.884;2024-01-16T17:18:48;3.70;89.00
82851;DHT22;72609;45.768;4.884;2024-01-16T17:21:14;3.70;89.40
82851;DHT22;72609;45.768;4.884;2024-01-16T17:23:40;3.70;87.70
82851;DHT22;72609;45.768;4.884;2024-01-16T17:26:06;3.60;88.00
82851;DHT22;72609;45.768;4.884;2024-01-16T17:28:31;3.50;89.20
82851;DHT22;72609;45.768;4.884;2024-01-16T17:30:58;3.60;90.00
82851;DHT22;72609;45.768;4.884;2024-01-16T17:33:24;3.60;90.00
82851;DHT22;72609;45.768;4.884;2024-01-16T17:35:51;3.60;90.10
82851;DHT22;72609;45.768;4.884;2024-01-16T17:38:20;3.70;90.00
82851;DHT22;72609;45.768;4.884;2024-01-16T17:40:47;3.70;89.60
82851;DHT22;72609;45.768;4.884;2024-01-16T17:43:14;3.70;89.70
82851;DHT22;72609;45.768;4.884;2024-01-16T17:45:40;3.80;90.00
82851;DHT22;72609;45.768;4.884;2024-01-16T17:48:05;3.80;89.20
82851;DHT22;72609;45.768;4.884;2024-01-16T17:50:31;3.80;89.50
82851;DHT22;72609;45.768;4.884;2024-01-16T17:53:01;3.80;89.40
82851;DHT22;72609;45.768;4.884;2024-01-16T17:55:31;3.90;89.30
82851;DHT22;72609;45.768;4.884;2024-01-16T17:58:01;3.80;88.90
82851;DHT22;72609;45.768;4.884;2024-01-16T18:00:28;3.80;88.10
82851;DHT22;72609;45.768;4.884;2024-01-16T18:02:55;3.80;89.20
82851;DHT22;72609;45.768;4.884;2024-01-16T18:05:22;3.80;89.70
82851;DHT22;72609;45.768;4.884;2024-01-16T18:07:48;3.80;88.90
82851;DHT22;72609;45.768;4.884;2024-01-16T18:10:13;3.80;89.50
82851;DHT22;72609;45.768;4.884;2024-01-16T18:12:40;3.90;90.00
82851;DHT22;72609;45.768;4.884;2024-01-16T18:15:08;3.90;89.70
82851;DHT22;72609;45.768;4.884;2024-01-16T18:17:40;3.90;89.40
82851;DHT22;72609;45.768;4.884;2024-01-16T18:20:09;3.90;89.50
82851;DHT22;72609;45.768;4.884;2024-01-16T18:22:38;3.90;89.70
82851;DHT22;72609;45.768;4.884;2024-01-16T18:25:05;3.90;89.50
82851;DHT22;72609;45.768;4.884;2024-01-16T18:27:34;3.90;89.10
82851;DHT22;72609;45.768;4.884;2024-01-16T18:30:01;4.00;89.50
82851;DHT22;72609;45.768;4.884;2024-01-16T18:32:27;4.00;89.40
82851;DHT22;72609;45.768;4.884;2024-01-16T18:34:53;3.90;89.40
82851;DHT22;72609;45.768;4.884;2024-01-16T18:37:18;3.90;88.60
82851;DHT22;72609;45.768;4.884;2024-01-16T18:39:45;3.90;88.80
82851;DHT22;72609;45.768;4.884;2024-01-16T18:42:10;3.80;88.30
82851;DHT22;72609;45.768;4.884;2024-01-16T18:44:36;3.70;88.20
82851;DHT22;72609;45.768;4.884;2024-01-16T18:47:02;3.70;90.10
82851;DHT22;72609;45.768;4.884;2024-01-16T18:49:28;3.70;90.10
82851;DHT22;72609;45.768;4.884;2024-01-16T18:51:55;3.80;90.00
82851;DHT22;72609;45.768;4.884;2024-01-16T18:54:24;3.80;89.40
82851;DHT22;72609;45.768;4.884;2024-01-16T18:56:50;3.80;89.50
82851;DHT22;72609;45.768;4.884;2024-01-16T18:59:16;3.70;88.90
82851;DHT22;72609;45.768;4.884;2024-01-16T19:01:42;3.70;89.30
82851;DHT22;72609;45.768;4.884;2024-01-16T19:04:09;3.70;90.00
82851;DHT22;72609;45.768;4.884;2024-01-16T19:06:45;3.70;90.10
82851;DHT22;72609;45.768;4.884;2024-01-16T19:09:11;3.70;89.80
82851;DHT22;72609;45.768;4.884;2024-01-16T19:11:36;3.70;90.20
82851;DHT22;72609;45.768;4.884;2024-01-16T19:14:03;3.70;89.90
82851;DHT22;72609;45.768;4.884;2024-01-16T19:16:28;3.60;90.20
82851;DHT22;72609;45.768;4.884;2024-01-16T19:18:54;3.60;90.40
82851;DHT22;72609;45.768;4.884;2024-01-16T19:21:20;3.70;90.40
82851;DHT22;72609;45.768;4.884;2024-01-16T19:23:45;3.70;90.30
82851;DHT22;72609;45.768;4.884;2024-01-16T19:26:12;3.70;90.30
82851;DHT22;72609;45.768;4.884;2024-01-16T19:28:39;3.70;90.00
82851;DHT22;72609;45.768;4.884;2024-01-16T19:31:05;3.70;90.20
82851;DHT22;72609;45.768;4.884;2024-01-16T19:33:30;3.70;90.10
82851;DHT22;72609;45.768;4.884;2024-01-16T19:35:56;3.70;90.00
82851;DHT22;72609;45.768;4.884;2024-01-16T19:38:24;3.60;90.00
82851;DHT22;72609;45.768;4.884;2024-01-16T19:40:50;3.60;90.00
82851;DHT22;72609;45.768;4.884;2024-01-16T19:43:17;3.60;90.00
82851;DHT22;72609;45.768;4.884;2024-01-16T19:45:43;3.60;90.10
82851;DHT22;72609;45.768;4.884;2024-01-16T19:48:12;3.60;90.10
82851;DHT22;72609;45.768;4.884;2024-01-16T19:50:47;3.60;90.30
82851;DHT22;72609;45.768;4.884;2024-01-16T19:53:14;3.50;90.30
82851;DHT22;72609;45.768;4.884;2024-01-16T19:55:42;3.60;90.40
82851;DHT22;72609;45.768;4.884;2024-01-16T19:58:08;3.60;90.40
82851;DHT22;72609;45.768;4.884;2024-01-16T20:00:36;3.50;90.30
82851;DHT22;72609;45.768;4.884;2024-01-16T20:03:05;3.50;90.40
82851;DHT22;72609;45.768;4.884;2024-01-16T20:05:33;3.50;90.30
82851;DHT22;72609;45.768;4.884;2024-01-16T20:08:03;3.50;90.20
82851;DHT22;72609;45.768;4.884;2024-01-16T20:10:28;3.50;90.50
82851;DHT22;72609;45.768;4.884;2024-01-16T20:12:54;3.50;90.40
82851;DHT22;72609;45.768;4.884;2024-01-16T20:15:20;3.60;90.70
82851;DHT22;72609;45.768;4.884;2024-01-16T20:17:47;3.50;90.50
82851;DHT22;72609;45.768;4.884;2024-01-16T20:20:13;3.50;90.60
82851;DHT22;72609;45.768;4.884;2024-01-16T20:22:43;3.60;90.50
82851;DHT22;72609;45.768;4.884;2024-01-16T20:25:09;3.60;90.60
82851;DHT22;72609;45.768;4.884;2024-01-16T20:27:41;3.60;90.50
82851;DHT22;72609;45.768;4.884;2024-01-16T20:30:08;3.60;90.30
82851;DHT22;72609;45.768;4.884;2024-01-16T20:32:35;3.60;90.60
82851;DHT22;72609;45.768;4.884;2024-01-16T20:35:01;3.60;90.40
82851;DHT22;72609;45.768;4.884;2024-01-16T20:37:28;3.60;90.20
82851;DHT22;72609;45.768;4.884;2024-01-16T20:39:55;3.60;90.40
82851;DHT22;72609;45.768;4.884;2024-01-16T20:42:20;3.70;90.80
82851;DHT22;72609;45.768;4.884;2024-01-16T20:44:46;3.70;90.70
82851;DHT22;72609;45.768;4.884;2024-01-16T20:47:12;3.70;90.10
82851;DHT22;72609;45.768;4.884;2024-01-16T20:49:37;3.50;90.60
82851;DHT22;72609;45.768;4.884;2024-01-16T20:52:03;3.60;90.90
82851;DHT22;72609;45.768;4.884;2024-01-16T20:54:29;3.60;90.90
82851;DHT22;72609;45.768;4.884;2024-01-16T20:56:55;3.70;90.60
82851;DHT22;72609;45.768;4.884;2024-01-16T20:59:20;3.70;90.20
82851;DHT22;72609;45.768;4.884;2024-01-16T21:01:48;3.70;90.60
82851;DHT22;72609;45.768;4.884;2024-01-16T21:04:13;3.80;90.70
82851;DHT22;72609;45.768;4.884;2024-01-16T21:06:40;3.80;90.50
82851;DHT22;72609;45.768;4.884;2024-01-16T21:09:06;3.80;90.10
82851;DHT22;72609;45.768;4.884;2024-01-16T21:11:31;3.80;90.40
82851;DHT22;72609;45.768;4.884;2024-01-16T21:13:57;3.80;90.40
82851;DHT22;72609;45.768;4.884;2024-01-16T21:16:22;3.80;90.20
82851;DHT22;72609;45.768;4.884;2024-01-16T21:18:49;3.80;90.10
82851;DHT22;72609;45.768;4.884;2024-01-16T21:21:15;3.70;90.10
82851;DHT22;72609;45.768;4.884;2024-01-16T21:23:44;3.70;90.00
82851;DHT22;72609;45.768;4.884;2024-01-16T21:26:10;3.60;90.10
82851;DHT22;72609;45.768;4.884;2024-01-16T21:28:37;3.60;90.10
82851;DHT22;72609;45.768;4.884;2024-01-16T21:31:03;3.70;90.20
82851;DHT22;72609;45.768;4.884;2024-01-16T21:33:31;3.70;90.40
82851;DHT22;72609;45.768;4.884;2024-01-16T21:35:57;3.70;90.40
82851;DHT22;72609;45.768;4.884;2024-01-16T21:38:24;3.80;90.40
82851;DHT22;72609;45.768;4.884;2024-01-16T21:40:49;3.70;90.00
82851;DHT22;72609;45.768;4.884;2024-01-16T21:43:16;3.70;90.40
82851;DHT22;72609;45.768;4.884;2024-01-16T21:45:42;3.70;90.30
82851;DHT22;72609;45.768;4.884;2024-01-16T21:48:09;3.70;90.70
82851;DHT22;72609;45.768;4.884;2024-01-16T21:50:35;3.80;90.70
82851;DHT22;72609;45.768;4.884;2024-01-16T21:53:01;3.80;90.60
82851;DHT22;72609;45.768;4.884;2024-01-16T21:55:26;3.80;90.20
82851;DHT22;72609;45.768;4.884;2024-01-16T21:57:52;3.80;90.50
82851;DHT22;72609;45.768;4.884;2024-01-16T22:00:18;3.80;90.60
82851;DHT22;72609;45.768;4.884;2024-01-16T22:02:45;3.90;90.60
82851;DHT22;72609;45.768;4.884;2024-01-16T22:05:11;3.90;90.50
82851;DHT22;72609;45.768;4.884;2024-01-16T22:07:37;3.90;90.50
82851;DHT22;72609;45.768;4.884;2024-01-16T22:10:03;4.00;90.50
82851;DHT22;72609;45.768;4.884;2024-01-16T22:12:31;4.00;90.50
82851;DHT22;72609;45.768;4.884;2024-01-16T22:14:57;3.80;90.40
82851;DHT22;72609;45.768;4.884;2024-01-16T22:17:22;3.90;90.60
82851;DHT22;72609;45.768;4.884;2024-01-16T22:19:56;3.90;90.60
82851;DHT22;72609;45.768;4.884;2024-01-16T22:22:23;3.80;90.60
82851;DHT22;72609;45.768;4.884;2024-01-16T22:24:49;3.80;90.70
82851;DHT22;72609;45.768;4.884;2024-01-16T22:27:14;3.90;90.80
82851;DHT22;72609;45.768;4.884;2024-01-16T22:29:40;3.90;90.70
82851;DHT22;72609;45.768;4.884;2024-01-16T22:32:06;4.00;90.70
82851;DHT22;72609;45.768;4.884;2024-01-16T22:34:31;4.00;90.50
82851;DHT22;72609;45.768;4.884;2024-01-16T22:36:57;4.10;90.40
82851;DHT22;72609;45.768;4.884;2024-01-16T22:39:23;4.10;90.40
82851;DHT22;72609;45.768;4.884;2024-01-16T22:41:49;4.10;90.30
82851;DHT22;72609;45.768;4.884;2024-01-16T22:44:15;4.10;90.50
82851;DHT22;72609;45.768;4.884;2024-01-16T22:46:42;4.10;90.50
82851;DHT22;72609;45.768;4.884;2024-01-16T22:49:07;4.10;90.40
82851;DHT22;72609;45.768;4.884;2024-01-16T22:51:35;4.10;90.20
82851;DHT22;72609;45.768;4.884;2024-01-16T22:54:01;4.10;90.20
82851;DHT22;72609;45.768;4.884;2024-01-16T22:56:28;3.90;90.30
82851;DHT22;72609;45.768;4.884;2024-01-16T22:58:56;3.90;90.70
82851;DHT22;72609;45.768;4.884;2024-01-16T23:01:24;3.80;90.70
82851;DHT22;72609;45.768;4.884;2024-01-16T23:03:53;3.80;90.90
82851;DHT22;72609;45.768;4.884;2024-01-16T23:06:23;3.80;90.90
82851;DHT22;72609;45.768;4.884;2024-01-16T23:08:51;3.80;90.90
82851;DHT22;72609;45.768;4.884;2024-01-16T23:11:17;3.80;90.80
82851;DHT22;72609;45.768;4.884;2024-01-16T23:13:43;3.70;91.00
82851;DHT22;72609;45.768;4.884;2024-01-16T23:16:09;3.80;91.00
82851;DHT22;72609;45.768;4.884;2024-01-16T23:18:34;3.80;91.00
82851;DHT22;72609;45.768;4.884;2024-01-16T23:21:01;3.80;91.00
82851;DHT22;72609;45.768;4.884;2024-01-16T23:23:28;3.70;91.00
82851;DHT22;72609;45.768;4.884;2024-01-16T23:25:54;3.70;91.00
82851;DHT22;72609;45.768;4.884;2024-01-16T23:28:19;3.70;91.20
82851;DHT22;72609;45.768;4.884;2024-01-16T23:30:45;3.70;91.40
82851;DHT22;72609;45.768;4.884;2024-01-16T23:33:11;3.70;91.20
82851;DHT22;72609;45.768;4.884;2024-01-16T23:35:37;3.80;91.10
82851;DHT22;72609;45.768;4.884;2024-01-16T23:38:04;3.90;91.20
82851;DHT22;72609;45.768;4.884;2024-01-16T23:40:31;3.90;90.80
82851;DHT22;72609;45.768;4.884;2024-01-16T23:42:56;3.90;91.00
82851;DHT22;72609;45.768;4.884;2024-01-16T23:45:23;4.00;90.90
82851;DHT22;72609;45.768;4.884;2024-01-16T23:47:48;4.00;90.80
82851;DHT22;72609;45.768;4.884;2024-01-16T23:50:14;4.10;90.70
82851;DHT22;72609;45.768;4.884;2024-01-16T23:52:42;4.00;90.40
82851;DHT22;72609;45.768;4.884;2024-01-16T23:55:08;4.10;90.70
82851;DHT22;72609;45.768;4.884;2024-01-16T23:57:35;4.00;90.30
